Time;durP1;ratioP1;P1;durP2;ratioP2;P2;SDS_P1;SDS_P2;PMS_P1;PMS_P2;Temp;Humidity;BMP_temperature;BMP_pressure;BME280_temperature;BME280_humidity;BME280_pressure;Samples;Min_cycle;Max_cycle;Signal;HPM_P1;HPM_P2
2023/05/01 00:00:49;;;;;;;6.55;3.80;;;;;;;25.51;31.05;101344.00;4131639;28;20043;-69
2023/05/01 00:02:51;;;;;;;5.72;3.90;;;;;;;25.51;30.79;101347.53;4131559;28;20057;-69
2023/05/01 00:04:53;;;;;;;6.55;3.88;;;;;;;25.50;31.02;101345.81;4130222;28;20074;-70
2023/05/01 00:06:55;;;;;;;;;;;;;;;25.47;31.23;101340.72;4132100;28;20104;-69
2023/05/01 00:08:57;;;;;;;6.22;4.18;;;;;;;25.47;30.79;101353.31;4131414;28;19922;-69
2023/05/01 00:11:03;;;;;;;5.57;3.70;;;;;;;25.47;31.30;101335.34;4131476;28;20118;-70
2023/05/01 00:13:05;;;;;;;6.82;4.13;;;;;;;25.48;30.87;101337.06;4131601;28;20046;-70
2023/05/01 00:15:07;;;;;;;8.18;4.10;;;;;;;25.49;31.00;101341.47;4130440;28;20053;-70
2023/05/01 00:17:08;;;;;;;6.35;4.15;;;;;;;25.49;30.85;101338.75;4131313;28;20050;-69
2023/05/01 00:19:11;;;;;;;6.35;4.05;;;;;;;25.48;30.94;101336.19;4131214;28;20066;-69
2023/05/01 00:21:13;;;;;;;6.22;3.75;;;;;;;25.45;31.20;101334.63;4131207;28;20054;-70
2023/05/01 00:23:15;;;;;;;6.20;3.92;;;;;;;25.47;31.14;101326.41;4131162;28;20057;-70
2023/05/01 00:25:16;;;;;;;6.90;3.72;;;;;;;25.48;30.97;101326.28;4112900;28;20546;-70
2023/05/01 00:27:18;;;;;;;6.38;3.92;;;;;;;25.47;30.90;101329.97;4131250;28;20145;-69
2023/05/01 00:29:20;;;;;;;6.03;3.95;;;;;;;25.44;31.17;101318.59;4131013;28;20445;-70
2023/05/01 00:31:24;;;;;;;5.60;4.05;;;;;;;25.49;31.27;101324.44;4131187;28;20046;-69
2023/05/01 00:33:26;;;;;;;5.65;3.88;;;;;;;25.46;31.24;101325.56;4130803;28;20514;-70
2023/05/01 00:35:29;;;;;;;6.35;3.95;;;;;;;25.47;30.98;101318.31;4130115;28;20046;-70
2023/05/01 00:37:31;;;;;;;5.78;4.05;;;;;;;25.48;30.65;101328.09;4131074;28;20046;-69
2023/05/01 00:39:32;;;;;;;6.43;4.20;;;;;;;25.48;30.94;101322.72;4131034;28;20138;-70
2023/05/01 00:41:35;;;;;;;5.97;4.30;;;;;;;25.46;30.89;101316.63;4131109;28;20042;-70
2023/05/01 00:43:36;;;;;;;6.40;4.47;;;;;;;25.46;31.18;101314.78;4131073;28;20074;-70
2023/05/01 00:45:39;;;;;;;;;;;;;;;25.44;31.27;101314.06;4130430;28;20042;-70
2023/05/01 00:47:41;;;;;;;6.25;4.28;;;;;;;25.40;31.16;101309.94;4130572;28;20424;-70
2023/05/01 00:49:44;;;;;;;6.15;3.78;;;;;;;25.44;31.03;101313.22;4130931;28;20053;-70
2023/05/01 00:51:51;;;;;;;6.60;4.38;;;;;;;25.44;31.29;101307.84;4130593;28;20062;-70
2023/05/01 00:53:54;;;;;;;6.55;4.05;;;;;;;25.45;31.31;101306.84;4131076;28;20423;-70
2023/05/01 00:55:57;;;;;;;5.53;3.90;;;;;;;25.42;31.28;101304.41;4129857;28;20521;-70
2023/05/01 00:58:00;;;;;;;6.85;4.50;;;;;;;25.46;31.31;101308.56;4130952;28;20103;-70
2023/05/01 01:00:04;;;;;;;5.82;4.28;;;;;;;25.46;31.20;101300.47;4130743;28;20054;-68
2023/05/01 01:02:05;;;;;;;5.90;3.90;;;;;;;25.45;31.01;101299.63;4130411;28;20046;-69
2023/05/01 01:04:07;;;;;;;6.15;4.63;;;;;;;25.42;30.95;101285.56;4130306;28;20150;-69
2023/05/01 01:06:30;;;;;;;;;;;;;;;25.42;31.38;101288.25;4130556;28;20141;-69
2023/05/01 01:08:51;;;;;;;;;;;;;;;25.37;31.22;101283.25;4131195;28;19925;-69
2023/05/01 01:11:12;;;;;;;6.78;4.78;;;;;;;25.38;31.22;101284.16;4114027;28;19925;-70
2023/05/01 01:13:38;;;;;;;6.28;4.18;;;;;;;25.42;31.65;101288.25;4130720;28;20121;-69
2023/05/01 01:15:49;;;;;;;6.22;4.57;;;;;;;25.37;31.36;101275.19;4129482;28;20057;-70
2023/05/01 01:18:05;;;;;;;7.20;4.25;;;;;;;25.37;31.22;101269.78;4130615;28;20420;-70
2023/05/01 01:20:20;;;;;;;6.80;4.82;;;;;;;25.38;31.22;101273.38;4130719;28;20054;-70
2023/05/01 01:22:25;;;;;;;6.43;4.50;;;;;;;25.40;31.14;101276.81;4130475;28;20058;-70
2023/05/01 01:24:56;;;;;;;6.82;4.32;;;;;;;25.41;31.06;101268.56;4129713;28;20077;-69
2023/05/01 01:27:07;;;;;;;7.15;4.65;;;;;;;25.40;31.28;101272.25;4130825;28;20053;-70
2023/05/01 01:29:33;;;;;;;6.72;4.50;;;;;;;25.42;31.22;101272.09;4130740;28;20052;-70
2023/05/01 01:31:56;;;;;;;7.47;4.35;;;;;;;25.40;31.22;101268.72;4112726;28;20051;-70
2023/05/01 01:34:17;;;;;;;7.13;4.60;;;;;;;25.40;31.30;101266.03;4130573;28;20412;-69
2023/05/01 01:36:25;;;;;;;;;;;;;;;25.35;31.40;101261.03;4130863;28;20046;-70
2023/05/01 01:38:40;;;;;;;6.38;4.10;;;;;;;25.26;31.65;101243.84;4130690;28;19932;-69
2023/05/01 01:41:05;;;;;;;5.78;4.45;;;;;;;25.39;31.59;101259.78;4130443;28;20046;-70
2023/05/01 01:43:11;;;;;;;7.78;4.68;;;;;;;25.36;31.05;101263.56;4133152;28;20050;-70
2023/05/01 01:45:18;;;;;;;6.30;4.50;;;;;;;25.36;31.11;101254.66;4132302;28;20673;-69
2023/05/01 01:47:23;;;;;;;6.15;4.20;;;;;;;25.38;31.25;101260.75;4133577;28;20121;-69
2023/05/01 01:49:28;;;;;;;7.13;4.22;;;;;;;25.38;31.00;101260.75;4133660;28;20046;-69
2023/05/01 01:51:30;;;;;;;5.72;3.78;;;;;;;25.38;31.46;101257.22;4133513;28;20042;-69
2023/05/01 01:53:36;;;;;;;5.72;3.80;;;;;;;25.36;31.16;101258.19;4133597;28;20058;-70
2023/05/01 01:55:39;;;;;;;5.70;3.80;;;;;;;25.34;31.28;101254.75;4132806;28;20133;-69
2023/05/01 01:57:43;;;;;;;5.15;3.78;;;;;;;25.36;31.31;101260.03;4133785;28;20042;-69
2023/05/01 01:59:47;;;;;;;5.60;4.10;;;;;;;25.35;31.41;101261.03;4133366;28;20042;-69
2023/05/01 02:01:50;;;;;;;6.05;4.20;;;;;;;25.35;31.21;101261.84;4133562;28;20051;-69
2023/05/01 02:03:53;;;;;;;6.97;4.32;;;;;;;25.37;31.31;101264.41;4133390;28;20046;-69
2023/05/01 02:05:57;;;;;;;7.15;4.70;;;;;;;25.36;31.37;101263.56;4132244;28;20062;-70
2023/05/01 02:08:00;;;;;;;6.70;4.10;;;;;;;25.37;31.39;101264.41;4133539;28;20050;-69
2023/05/01 02:10:04;;;;;;;6.93;4.43;;;;;;;25.35;31.55;101263.72;4133429;28;20046;-69
2023/05/01 02:12:07;;;;;;;6.40;4.25;;;;;;;25.34;31.25;101265.53;4115999;28;20117;-70
2023/05/01 02:14:10;;;;;;;6.00;4.13;;;;;;;25.33;31.29;101257.59;4133158;28;20054;-70
2023/05/01 02:16:13;;;;;;;5.85;4.22;;;;;;;25.33;31.26;101269.22;4132439;28;20050;-71
2023/05/01 02:18:15;;;;;;;5.90;4.20;;;;;;;25.34;31.32;101267.38;4132086;28;20098;-70
2023/05/01 02:20:18;;;;;;;6.05;3.95;;;;;;;25.33;31.41;101271.91;4133229;28;20070;-70
2023/05/01 02:22:21;;;;;;;5.75;4.22;;;;;;;25.33;31.19;101266.53;4132902;28;20515;-70
2023/05/01 02:24:24;;;;;;;6.45;4.50;;;;;;;25.33;31.37;101265.69;4132896;28;20129;-70
2023/05/01 02:26:28;;;;;;;6.45;4.40;;;;;;;25.34;31.08;101264.69;4115058;28;20532;-69
2023/05/01 02:28:32;;;;;;;7.22;4.22;;;;;;;25.34;31.44;101265.53;4132531;28;20050;-70
2023/05/01 02:30:34;;;;;;;6.50;4.38;;;;;;;25.33;31.30;101269.22;4133281;28;20046;-72
2023/05/01 02:32:36;;;;;;;6.80;4.10;;;;;;;25.32;31.13;101272.06;4133054;28;20437;-69
2023/05/01 02:34:38;;;;;;;5.40;3.70;;;;;;;25.33;31.28;101276.44;4132347;28;20440;-70
2023/05/01 02:36:40;;;;;;;6.03;4.03;;;;;;;25.32;31.56;101274.75;4132943;28;20054;-71
2023/05/01 02:38:42;;;;;;;5.35;4.00;;;;;;;25.31;31.27;101268.53;4115553;28;20130;-69
2023/05/01 02:40:49;;;;;;;5.50;3.90;;;;;;;25.31;31.09;101278.41;4132842;28;20047;-67
2023/05/01 02:42:52;;;;;;;5.65;3.75;;;;;;;25.16;31.37;101248.34;4132980;28;20100;-69
2023/05/01 02:45:00;;;;;;;6.20;3.72;;;;;;;25.31;31.53;101273.91;4131990;28;20594;-70
2023/05/01 02:47:04;;;;;;;5.07;3.78;;;;;;;25.31;31.14;101273.91;4132871;28;20414;-70
2023/05/01 02:49:06;;;;;;;5.38;3.97;;;;;;;25.27;31.29;101260.84;4132797;28;20066;-69
2023/05/01 02:51:08;;;;;;;;;;;;;;;25.29;31.60;101275.88;4133180;28;20078;-70
2023/05/01 02:53:10;;;;;;;5.50;3.63;;;;;;;25.28;31.21;101270.63;4132705;28;20436;-69
2023/05/01 02:55:12;;;;;;;4.97;3.55;;;;;;;25.29;31.39;101269.66;4131895;28;20054;-70
2023/05/01 02:57:15;;;;;;;;;;;;;;;25.27;31.61;101272.47;4132986;28;20494;-69
2023/05/01 02:59:17;;;;;;;5.43;3.70;;;;;;;25.26;31.05;101269.91;4132342;28;20007;-68
2023/05/01 03:01:19;;;;;;;5.47;3.58;;;;;;;25.23;31.40;101264.81;4132529;28;20097;-72
2023/05/01 03:03:21;;;;;;;5.90;3.90;;;;;;;25.27;31.04;101263.53;4132857;28;20046;-69
2023/05/01 03:05:23;;;;;;;5.47;3.40;;;;;;;25.28;31.60;101270.63;4131592;28;20078;-69
2023/05/01 03:07:24;;;;;;;5.53;3.90;;;;;;;25.27;31.40;101269.75;4132487;28;20133;-69
2023/05/01 03:09:26;;;;;;;5.70;3.65;;;;;;;25.28;31.39;101265.25;4132558;28;20050;-68
2023/05/01 03:11:27;;;;;;;5.13;3.28;;;;;;;25.27;31.15;101269.75;4132603;28;20130;-71
2023/05/01 03:13:29;;;;;;;5.95;4.20;;;;;;;25.29;31.24;101267.81;4132355;28;20052;-68
2023/05/01 03:15:31;;;;;;;4.97;3.58;;;;;;;25.28;31.08;101266.09;4131397;28;20054;-69
2023/05/01 03:17:33;;;;;;;5.32;3.50;;;;;;;25.28;31.52;101265.25;4132515;28;20050;-68
2023/05/01 03:19:35;;;;;;;5.70;3.47;;;;;;;25.28;31.30;101268.78;4132309;28;20564;-69
2023/05/01 03:21:37;;;;;;;5.40;3.70;;;;;;;25.29;31.20;101265.09;4132062;28;20141;-69
2023/05/01 03:23:39;;;;;;;5.13;3.20;;;;;;;25.26;31.19;101268.06;4132450;28;20077;-70
2023/05/01 03:25:40;;;;;;;5.35;3.45;;;;;;;25.27;31.32;101274.31;4131084;28;20376;-70
2023/05/01 03:27:42;;;;;;;4.82;3.38;;;;;;;25.26;31.20;101270.75;4131833;28;20516;-69
2023/05/01 03:29:44;;;;;;;5.00;3.15;;;;;;;25.25;31.21;101270.91;4132244;28;20492;-69
2023/05/01 03:31:45;;;;;;;5.25;3.75;;;;;;;25.25;31.17;101266.38;4132172;28;20110;-69
2023/05/01 03:33:47;;;;;;;5.00;3.60;;;;;;;25.27;31.25;101274.31;4132258;28;20523;-69
2023/05/01 03:35:58;;;;;;;;;;;;;;;25.26;31.40;101269.91;4131458;28;20471;-68
2023/05/01 03:38:00;;;;;;;5.13;3.53;;;;;;;25.24;31.32;101271.88;4132082;28;19926;-70
2023/05/01 03:40:02;;;;;;;4.85;3.22;;;;;;;25.24;31.22;101267.38;4131943;28;20057;-70
2023/05/01 03:42:04;;;;;;;4.45;2.83;;;;;;;25.25;31.04;101271.75;4131488;28;20053;-72
2023/05/01 03:44:06;;;;;;;4.93;3.10;;;;;;;25.24;30.99;101272.75;4132017;28;20117;-72
2023/05/01 03:46:11;;;;;;;5.20;3.28;;;;;;;25.25;31.28;101270.91;4130731;28;20058;-72
2023/05/01 03:48:16;;;;;;;4.93;3.00;;;;;;;25.23;31.20;101270.22;4131950;28;20053;-71
2023/05/01 03:50:17;;;;;;;6.18;3.42;;;;;;;25.23;31.24;101276.44;4131800;28;20496;-70
2023/05/01 03:52:19;;;;;;;4.88;3.38;;;;;;;25.25;31.19;101270.91;4131892;28;20415;-70
2023/05/01 03:54:21;;;;;;;5.35;3.67;;;;;;;25.23;31.32;101270.22;4131771;28;20097;-71
2023/05/01 03:56:26;;;;;;;4.75;3.35;;;;;;;25.24;31.34;101274.56;4130717;28;20137;-71
2023/05/01 03:58:28;;;;;;;5.63;3.30;;;;;;;25.24;31.46;101274.56;4131648;28;20054;-71
2023/05/01 04:00:31;;;;;;;5.10;3.58;;;;;;;25.25;31.29;101281.66;4130953;28;20546;-71
2023/05/01 04:02:33;;;;;;;5.57;3.28;;;;;;;25.24;31.52;101272.75;4131810;28;20066;-72
2023/05/01 04:04:35;;;;;;;4.65;3.05;;;;;;;25.23;31.30;101276.44;4131113;28;20050;-72
2023/05/01 04:06:36;;;;;;;;;;;;;;;25.22;31.54;101276.56;4130813;28;20062;-70
2023/05/01 04:08:38;;;;;;;4.50;3.00;;;;;;;25.18;31.71;101279.53;4130489;28;19972;-71
2023/05/01 04:10:40;;;;;;;5.13;3.40;;;;;;;25.19;31.01;101272.31;4131128;28;20046;-70
2023/05/01 04:12:41;;;;;;;4.85;3.40;;;;;;;25.21;31.23;101275.72;4131530;28;20105;-70
2023/05/01 04:14:44;;;;;;;4.80;3.22;;;;;;;25.20;31.58;101276.69;4131237;28;20050;-71
2023/05/01 04:16:46;;;;;;;6.03;3.60;;;;;;;25.22;31.04;101274.72;4130677;28;20077;-70
2023/05/01 04:18:48;;;;;;;4.88;3.40;;;;;;;25.21;31.15;101273.00;4131557;28;20129;-70
2023/05/01 04:20:51;;;;;;;5.53;3.38;;;;;;;25.22;31.15;101277.41;4131512;28;20416;-70
2023/05/01 04:22:53;;;;;;;4.95;3.50;;;;;;;25.21;31.43;101273.00;4131304;28;20060;-71
2023/05/01 04:24:55;;;;;;;4.57;3.33;;;;;;;25.20;31.22;101272.19;4130368;28;20050;-71
2023/05/01 04:26:57;;;;;;;4.85;3.50;;;;;;;25.18;31.28;101274.13;4131315;28;20475;-70
2023/05/01 04:29:01;;;;;;;6.15;3.38;;;;;;;25.22;31.51;101284.66;4131313;28;20109;-70
2023/05/01 04:31:03;;;;;;;4.68;3.25;;;;;;;25.18;31.35;101284.91;4131312;28;20129;-71
2023/05/01 04:33:10;;;;;;;4.72;3.40;;;;;;;25.20;31.10;101291.00;4131067;28;20062;-71
2023/05/01 04:35:11;;;;;;;4.95;3.40;;;;;;;25.19;31.52;101292.00;4130471;28;20452;-71
2023/05/01 04:37:16;;;;;;;6.28;3.55;;;;;;;25.20;31.58;101290.16;4130936;28;20084;-70
2023/05/01 04:39:18;;;;;;;5.47;3.50;;;;;;;25.18;31.35;101292.97;4131004;28;20050;-70
2023/05/01 04:41:20;;;;;;;4.70;3.58;;;;;;;25.22;31.21;101293.56;4130881;28;20042;-71
2023/05/01 04:43:21;;;;;;;;;;;;;;;25.19;31.64;101289.31;4131495;28;20078;-70
2023/05/01 04:45:23;;;;;;;5.95;3.97;;;;;;;25.16;31.32;101296.81;4129873;28;19956;-70
2023/05/01 04:47:25;;;;;;;6.22;3.55;;;;;;;25.20;31.39;101296.41;4130973;28;20046;-69
2023/05/01 04:49:27;;;;;;;6.03;4.10;;;;;;;25.25;31.15;101295.13;4131001;28;20129;-71
2023/05/01 04:51:29;;;;;;;;;;;;;;;25.27;31.52;101298.53;4131530;28;20104;-70
2023/05/01 04:53:31;;;;;;;5.60;3.78;;;;;;;25.27;31.64;101296.69;4130621;28;20013;-70
2023/05/01 04:55:35;;;;;;;5.43;3.70;;;;;;;25.32;31.21;101291.78;4112829;28;20429;-70
2023/05/01 04:57:37;;;;;;;;;;;;;;;25.34;31.36;101292.47;4131470;28;20133;-70
2023/05/01 04:59:38;;;;;;;5.27;3.70;;;;;;;25.36;31.01;101298.56;4130847;28;19921;-70
2023/05/01 05:01:40;;;;;;;5.55;3.90;;;;;;;25.37;31.19;101283.25;4130970;28;20289;-71
2023/05/01 05:03:42;;;;;;;4.70;3.50;;;;;;;25.43;31.03;101300.75;4130873;28;20058;-70
2023/05/01 05:05:45;;;;;;;;;;;;;;;25.43;31.23;101298.91;4130229;28;20046;-70
2023/05/01 05:07:47;;;;;;;4.95;3.53;;;;;;;25.44;31.28;101302.44;4113523;28;19922;-70
2023/05/01 05:09:48;;;;;;;5.50;3.65;;;;;;;25.47;30.87;101300.34;4130474;28;20116;-70
2023/05/01 05:11:50;;;;;;;5.10;3.35;;;;;;;25.48;31.32;101298.47;4130877;28;20054;-70
2023/05/01 05:13:52;;;;;;;5.25;3.92;;;;;;;25.50;31.03;101301.91;4130840;28;20112;-70
2023/05/01 05:15:54;;;;;;;5.68;4.20;;;;;;;25.52;30.99;101295.38;4129868;28;20492;-70
2023/05/01 05:17:55;;;;;;;5.57;3.63;;;;;;;25.58;30.93;101309.28;4130987;28;20161;-71
2023/05/01 05:19:57;;;;;;;;;;;;;;;25.60;31.21;101312.69;4131107;28;20050;-70
2023/05/01 05:22:03;;;;;;;5.28;3.30;;;;;;;25.61;31.32;101314.41;4130585;28;19925;-71
2023/05/01 05:24:04;;;;;;;5.15;3.47;;;;;;;25.67;31.18;101316.53;4130202;28;20069;-70
2023/05/01 05:26:06;;;;;;;;;;;;;;;25.67;31.05;101311.13;4129930;28;20057;-70
2023/05/01 05:28:08;;;;;;;5.28;3.22;;;;;;;25.66;31.37;101313.00;4130676;28;20350;-71
2023/05/01 05:30:10;;;;;;;;;;;;;;;25.68;31.02;101319.06;4130947;28;20118;-70
2023/05/01 05:32:14;;;;;;;6.03;3.60;;;;;;;25.70;30.98;101324.34;4130452;28;19921;-70
2023/05/01 05:34:16;;;;;;;5.18;3.78;;;;;;;25.74;31.10;101322.22;4129421;28;20104;-70
2023/05/01 05:36:17;;;;;;;;;;;;;;;25.76;30.58;101321.09;4129965;28;20166;-70
2023/05/01 05:38:19;;;;;;;5.68;3.63;;;;;;;25.77;31.13;101320.09;4130329;28;20401;-70
2023/05/01 05:40:21;;;;;;;4.90;3.25;;;;;;;25.81;30.96;101320.69;4130526;28;20416;-70
2023/05/01 05:42:23;;;;;;;4.85;3.42;;;;;;;25.84;31.29;101321.22;4129189;28;20117;-70
2023/05/01 05:44:24;;;;;;;5.60;3.58;;;;;;;25.84;30.88;101315.00;4130404;28;20046;-70
2023/05/01 05:46:26;;;;;;;;;;;;;;;25.86;30.55;101320.25;4129693;28;20046;-69
2023/05/01 05:48:28;;;;;;;6.43;3.63;;;;;;;25.87;30.99;101321.94;4130585;28;20073;-70
2023/05/01 05:50:29;;;;;;;;;;;;;;;25.87;30.46;101322.81;4131028;28;20050;-69
2023/05/01 05:52:32;;;;;;;5.60;3.40;;;;;;;25.89;30.94;101320.81;4130224;28;19940;-69
2023/05/01 05:54:33;;;;;;;6.00;3.40;;;;;;;25.94;30.60;101323.97;4113297;28;20081;-70
2023/05/01 05:56:35;;;;;;;5.10;3.33;;;;;;;25.97;31.04;101322.81;4129389;28;20056;-69
2023/05/01 05:58:38;;;;;;;5.05;3.22;;;;;;;26.00;30.60;101322.53;4130379;28;20050;-69
2023/05/01 06:00:40;;;;;;;5.55;3.40;;;;;;;26.01;30.70;101318.00;4130463;28;20047;-69
2023/05/01 06:02:42;;;;;;;4.22;3.03;;;;;;;26.06;30.38;101323.81;4130349;28;20109;-70
2023/05/01 06:04:44;;;;;;;5.35;3.30;;;;;;;26.07;30.81;101318.31;4130500;28;20064;-70
2023/05/01 06:06:46;;;;;;;5.20;3.33;;;;;;;26.10;30.34;101320.72;4129005;28;20427;-70
2023/05/01 06:08:47;;;;;;;4.70;3.25;;;;;;;26.09;30.83;101318.16;4130495;28;20050;-70
2023/05/01 06:10:49;;;;;;;5.45;3.55;;;;;;;26.15;30.66;101323.00;4130383;28;20053;-69
2023/05/01 06:12:51;;;;;;;6.13;4.00;;;;;;;26.17;30.60;101323.69;4130466;28;20051;-70
2023/05/01 06:15:07;;;;;;;5.00;3.28;;;;;;;26.15;30.59;101317.59;4112859;28;20161;-70
2023/05/01 06:17:09;;;;;;;4.47;3.17;;;;;;;26.22;30.31;101321.44;4129519;28;20542;-70
2023/05/01 06:19:11;;;;;;;5.10;3.20;;;;;;;26.21;30.64;101325.13;4112888;28;20479;-70
2023/05/01 06:21:13;;;;;;;4.97;3.50;;;;;;;26.19;30.42;101302.00;4129908;28;20069;-70
2023/05/01 06:23:15;;;;;;;5.35;3.42;;;;;;;26.31;30.18;101323.25;4129986;28;20050;-69
2023/05/01 06:25:16;;;;;;;4.88;3.30;;;;;;;26.33;30.43;101322.28;4112497;28;20081;-71
2023/05/01 06:27:18;;;;;;;5.30;3.33;;;;;;;26.36;30.24;101322.84;4129781;28;20428;-69
2023/05/01 06:29:22;;;;;;;4.43;3.15;;;;;;;26.42;30.36;101322.25;4132940;28;20493;-69
2023/05/01 06:31:24;;;;;;;;;;;;;;;26.45;30.26;101326.50;4133340;28;20102;-70
2023/05/01 06:33:26;;;;;;;6.10;3.40;;;;;;;26.47;30.22;101324.53;4133156;28;19929;-70
2023/05/01 06:35:28;;;;;;;4.72;3.33;;;;;;;26.51;30.02;101320.53;4131984;28;20046;-70
2023/05/01 06:37:30;;;;;;;5.35;3.45;;;;;;;26.55;29.88;101324.66;4132729;28;20050;-70
2023/05/01 06:39:32;;;;;;;5.45;3.45;;;;;;;26.58;29.70;101327.06;4133098;28;20070;-70
2023/05/01 06:41:34;;;;;;;4.53;3.13;;;;;;;26.59;29.98;101322.53;4132840;28;20116;-70
2023/05/01 06:43:36;;;;;;;5.05;3.10;;;;;;;26.60;29.76;101330.47;4133086;28;20104;-71
2023/05/01 06:45:40;;;;;;;;;;;;;;;26.60;29.87;101322.38;4132591;28;20216;-71
2023/05/01 06:47:42;;;;;;;4.75;3.17;;;;;;;26.60;29.54;101326.94;4132677;28;20003;-70
2023/05/01 06:49:43;;;;;;;4.63;3.20;;;;;;;26.65;29.86;101329.16;4132495;28;20088;-70
2023/05/01 06:51:45;;;;;;;5.75;3.80;;;;;;;26.66;30.08;101325.47;4132663;28;20093;-70
2023/05/01 06:53:47;;;;;;;5.13;3.22;;;;;;;26.63;29.81;101323.94;4132919;28;20070;-69
2023/05/01 06:55:48;;;;;;;5.20;3.25;;;;;;;26.70;29.56;101330.44;4131757;28;20219;-69
2023/05/01 06:57:50;;;;;;;4.80;3.33;;;;;;;26.72;29.72;101330.28;4132526;28;20058;-69
2023/05/01 06:59:52;;;;;;;5.53;3.38;;;;;;;26.75;29.48;101343.53;4115228;28;20046;-70
2023/05/01 07:01:54;;;;;;;4.70;3.17;;;;;;;26.75;29.74;101344.38;4132659;28;20047;-69
2023/05/01 07:03:56;;;;;;;5.22;3.35;;;;;;;26.76;29.81;101345.25;4132496;28;20416;-69
2023/05/01 07:05:58;;;;;;;;;;;;;;;26.75;29.76;101344.38;4132094;28;20050;-70
2023/05/01 07:08:00;;;;;;;5.32;3.30;;;;;;;26.74;29.65;101345.34;4132650;28;19921;-70
2023/05/01 07:10:04;;;;;;;5.63;3.50;;;;;;;26.76;29.66;101348.78;4132539;28;20056;-69
2023/05/01 07:12:08;;;;;;;7.35;3.88;;;;;;;26.80;29.92;101349.34;4132504;28;20121;-69
2023/05/01 07:14:10;;;;;;;5.65;3.55;;;;;;;26.82;29.90;101346.50;4132383;28;20046;-72
2023/05/01 07:16:12;;;;;;;5.53;3.55;;;;;;;26.83;29.68;101353.59;4131544;28;20557;-69
2023/05/01 07:18:16;;;;;;;5.60;3.50;;;;;;;26.86;29.33;101351.44;4132417;28;20427;-69
2023/05/01 07:20:18;;;;;;;5.07;3.30;;;;;;;26.87;29.42;101355.03;4132129;28;20416;-68
2023/05/01 07:22:20;;;;;;;;;;;;;;;26.87;29.51;101346.91;4132655;28;20077;-68
2023/05/01 07:24:21;;;;;;;5.82;3.10;;;;;;;26.87;29.71;101349.63;4132503;28;19984;-69
2023/05/01 07:26:26;;;;;;;5.47;3.38;;;;;;;26.90;29.23;101360.09;4131059;28;20046;-69
2023/05/01 07:28:28;;;;;;;5.53;3.35;;;;;;;26.91;29.56;101361.81;4132465;28;20478;-70
2023/05/01 07:30:31;;;;;;;4.95;3.30;;;;;;;26.90;29.37;101352.88;4132059;28;20046;-70
2023/05/01 07:32:33;;;;;;;6.13;3.30;;;;;;;26.93;30.01;101352.56;4132347;28;20152;-69
2023/05/01 07:34:35;;;;;;;5.32;3.10;;;;;;;26.94;29.14;101359.66;4131849;28;20046;-69
2023/05/01 07:36:38;;;;;;;4.43;2.97;;;;;;;26.97;29.67;101357.69;4131034;28;20392;-70
2023/05/01 07:38:40;;;;;;;4.78;2.95;;;;;;;26.97;29.22;101361.22;4132029;28;20135;-70
2023/05/01 07:40:42;;;;;;;4.80;3.30;;;;;;;26.95;29.64;101357.81;4131371;28;20054;-69
2023/05/01 07:42:45;;;;;;;5.47;2.95;;;;;;;26.94;29.47;101359.66;4131826;28;20042;-69
2023/05/01 07:44:49;;;;;;;4.97;3.17;;;;;;;26.95;29.07;101355.13;4132200;28;20054;-69
2023/05/01 07:46:51;;;;;;;5.20;2.97;;;;;;;26.95;29.28;101360.50;4130934;28;20055;-70
2023/05/01 07:48:52;;;;;;;;;;;;;;;26.94;29.48;101359.66;4114850;28;20514;-70
2023/05/01 07:50:55;;;;;;;4.38;3.00;;;;;;;26.92;29.47;101358.97;4132210;28;20431;-70
2023/05/01 07:52:57;;;;;;;4.75;2.83;;;;;;;26.97;28.66;101357.69;4131950;28;20053;-70
2023/05/01 07:54:59;;;;;;;5.20;2.65;;;;;;;26.99;29.21;101352.97;4131599;28;20433;-70
2023/05/01 07:57:01;;;;;;;;;;;;;;;26.98;29.32;101357.53;4131552;28;20395;-70
2023/05/01 07:59:03;;;;;;;3.67;2.45;;;;;;;26.95;29.41;101365.91;4131626;28;20379;-69
2023/05/01 08:01:05;;;;;;;4.35;2.75;;;;;;;26.96;29.57;101362.22;4131807;28;20057;-70
2023/05/01 08:03:07;;;;;;;4.50;2.53;;;;;;;26.98;29.26;101360.22;4131271;28;20046;-69
2023/05/01 08:05:09;;;;;;;4.13;2.40;;;;;;;27.00;28.94;101363.66;4131665;28;20124;-70
2023/05/01 08:07:10;;;;;;;;;;;;;;;27.00;29.26;101366.34;4113536;28;20058;-70
2023/05/01 08:09:12;;;;;;;3.50;2.40;;;;;;;26.97;29.58;101358.53;4131551;28;19928;-70
2023/05/01 08:11:15;;;;;;;;;;;;;;;26.99;29.44;101361.94;4131076;28;20449;-70
2023/05/01 08:13:17;;;;;;;4.20;2.50;;;;;;;26.98;29.23;101362.09;4131698;28;19953;-69
2023/05/01 08:15:20;;;;;;;4.47;2.70;;;;;;;27.01;29.12;101364.47;4131382;28;20392;-71
2023/05/01 08:17:21;;;;;;;4.32;2.58;;;;;;;27.03;29.23;101365.19;4130140;28;20050;-70
2023/05/01 08:19:24;;;;;;;3.95;2.58;;;;;;;27.02;29.19;101372.44;4131298;28;20053;-69
2023/05/01 08:21:25;;;;;;;4.38;2.72;;;;;;;27.00;29.34;101360.06;4113963;28;20082;-70
2023/05/01 08:23:27;;;;;;;3.72;2.47;;;;;;;27.02;29.21;101363.50;4131240;28;20116;-70
2023/05/01 08:25:30;;;;;;;;;;;;;;;27.01;29.47;101367.19;4131612;28;20046;-70
2023/05/01 08:27:32;;;;;;;3.80;2.22;;;;;;;26.99;29.44;101366.47;4130186;28;19968;-70
2023/05/01 08:29:34;;;;;;;3.60;2.15;;;;;;;27.05;29.26;101380.25;4131225;28;20578;-70
2023/05/01 08:31:37;;;;;;;;;;;;;;;27.04;29.36;101375.00;4131387;28;20046;-70
2023/05/01 08:33:43;;;;;;;3.40;1.98;;;;;;;26.98;29.62;101370.19;4131363;28;19968;-69
2023/05/01 08:35:44;;;;;;;3.90;2.17;;;;;;;27.05;29.53;101376.69;4130664;28;20500;-70
2023/05/01 08:37:46;;;;;;;4.20;2.20;;;;;;;27.05;29.33;101379.38;4130921;28;20054;-70
2023/05/01 08:39:48;;;;;;;;;;;;;;;27.05;29.24;101380.25;4114371;28;20050;-70
2023/05/01 08:41:51;;;;;;;3.83;2.30;;;;;;;26.99;29.52;101361.06;4130892;28;19922;-70
2023/05/01 08:43:56;;;;;;;4.10;2.30;;;;;;;27.04;29.56;101373.13;4131060;28;20050;-69
2023/05/01 08:46:01;;;;;;;3.45;2.10;;;;;;;27.10;29.14;101377.09;4129850;28;20381;-69
2023/05/01 08:48:09;;;;;;;3.85;2.20;;;;;;;27.09;29.13;101380.81;4130850;28;20504;-70
2023/05/01 08:50:13;;;;;;;3.42;2.10;;;;;;;27.12;29.05;101387.75;4131011;28;20073;-70
2023/05/01 08:52:14;;;;;;;3.75;2.00;;;;;;;27.10;29.41;101386.03;4130803;28;20050;-70
2023/05/01 08:54:18;;;;;;;4.30;2.33;;;;;;;27.10;29.14;101383.34;4131142;28;20130;-70
2023/05/01 08:56:22;;;;;;;3.78;2.40;;;;;;;27.11;29.32;101395.03;4130143;28;20054;-70
2023/05/01 08:58:25;;;;;;;3.78;2.00;;;;;;;27.12;29.26;101394.00;4131192;28;20093;-70
2023/05/01 09:00:28;;;;;;;3.70;2.30;;;;;;;27.10;29.29;101396.00;4130547;28;20178;-70
2023/05/01 09:02:33;;;;;;;3.08;2.15;;;;;;;27.11;29.36;101397.72;4130950;28;20101;-70
2023/05/01 09:04:39;;;;;;;4.28;2.08;;;;;;;27.14;29.23;101397.41;4130852;28;20047;-70
2023/05/01 09:06:43;;;;;;;3.35;2.00;;;;;;;27.13;29.62;101401.09;4112367;28;20074;-70
2023/05/01 09:08:45;;;;;;;3.72;1.98;;;;;;;27.15;29.17;101400.97;4130891;28;20173;-70
2023/05/01 09:10:48;;;;;;;3.47;2.17;;;;;;;27.14;29.29;101401.97;4130891;28;20046;-70
2023/05/01 09:12:59;;;;;;;4.22;2.20;;;;;;;27.12;29.30;101395.84;4130707;28;20045;-70
2023/05/01 09:15:02;;;;;;;3.03;2.00;;;;;;;27.10;29.29;101396.84;4130540;28;20057;-70
2023/05/01 09:17:04;;;;;;;3.30;1.95;;;;;;;27.13;29.06;101400.25;4129644;28;20138;-70
2023/05/01 09:19:06;;;;;;;;;;;;;;;27.08;29.46;101401.53;4131019;28;20052;-70
2023/05/01 09:21:09;;;;;;;3.45;1.80;;;;;;;27.08;29.35;101392.59;4130802;28;20036;-72
2023/05/01 09:23:11;;;;;;;3.70;2.00;;;;;;;27.14;29.53;101396.56;4130547;28;20114;-70
2023/05/01 09:25:12;;;;;;;;;;;;;;;27.12;29.05;101390.44;4131119;28;20062;-70
2023/05/01 09:27:14;;;;;;;3.00;1.75;;;;;;;27.03;29.51;101384.94;4129556;28;19927;-70
2023/05/01 09:29:42;;;;;;;3.35;2.10;;;;;;;27.15;29.38;101400.97;4130098;28;20489;-70
2023/05/01 09:31:44;;;;;;;3.45;2.03;;;;;;;27.12;29.40;101403.97;4130366;28;20139;-70
2023/05/01 09:34:05;;;;;;;;;;;;;;;27.10;29.19;101406.81;4131098;28;20455;-70
2023/05/01 09:36:07;;;;;;;2.60;1.70;;;;;;;27.05;29.28;101414.47;4129668;28;19968;-70
2023/05/01 09:38:09;;;;;;;;;;;;;;;27.05;29.53;101404.53;4113375;28;20047;-69
2023/05/01 09:40:12;;;;;;;;;;;;;;;27.04;29.61;101400.13;4131240;28;19961;-70
2023/05/01 09:42:23;;;;;;;3.45;2.05;;;;;;;27.08;29.47;101403.41;4130460;28;19922;-69